Time;durP1;ratioP1;P1;durP2;ratioP2;P2;SDS_P1;SDS_P2;PMS_P1;PMS_P2;Temp;Humidity;BMP_temperature;BMP_pressure;BME280_temperature;BME280_humidity;BME280_pressure;Samples;Min_cycle;Max_cycle;Signal;HPM_P1;HPM_P2
2023/08/24 00:01:45;;;;;;;3.83;3.73;;;18.30;68.60;;;;;;6211379;28;20841;-83
2023/08/24 00:04:48;;;;;;;4.00;3.80;;;18.20;68.70;;;;;;6203301;28;20319;-82
2023/08/24 00:07:52;;;;;;;3.80;3.60;;;18.20;68.70;;;;;;6205393;28;20244;-83
2023/08/24 00:10:57;;;;;;;4.30;4.10;;;18.20;68.90;;;;;;6196696;28;20255;-81
2023/08/24 00:14:00;;;;;;;4.20;4.10;;;18.20;69.00;;;;;;6198774;28;20329;-81
2023/08/24 00:17:03;;;;;;;4.00;3.90;;;18.20;69.00;;;;;;6194888;28;20239;-83
2023/08/24 00:20:10;;;;;;;3.90;3.80;;;18.10;69.20;;;;;;6202520;28;20248;-80
2023/08/24 00:23:13;;;;;;;4.03;3.93;;;18.10;69.20;;;;;;6206574;28;20223;-82
2023/08/24 00:26:18;;;;;;;3.87;3.77;;;18.10;69.30;;;;;;6205183;28;20227;-82
2023/08/24 00:29:22;;;;;;;4.57;4.27;;;18.10;69.40;;;;;;6202824;28;20258;-83
2023/08/24 00:32:25;;;;;;;4.00;3.80;;;18.10;69.50;;;;;;6204402;28;20662;-81
2023/08/24 00:35:28;;;;;;;4.53;4.33;;;18.10;69.50;;;;;;6202856;28;20239;-83
2023/08/24 00:38:31;;;;;;;4.60;4.40;;;18.00;69.50;;;;;;6196883;28;20246;-84
2023/08/24 00:41:36;;;;;;;3.97;3.87;;;18.00;69.70;;;;;;6203779;28;20979;-84
2023/08/24 00:44:39;;;;;;;4.73;4.53;;;18.00;69.70;;;;;;6204114;28;20313;-81
2023/08/24 00:47:45;;;;;;;4.60;4.40;;;18.00;69.80;;;;;;6195222;28;20789;-82
2023/08/24 00:50:48;;;;;;;4.90;4.60;;;18.00;70.00;;;;;;6213055;28;20267;-83
2023/08/24 00:53:54;;;;;;;4.70;4.50;;;18.00;70.00;;;;;;6211926;28;20798;-84
2023/08/24 00:56:58;;;;;;;5.50;5.20;;;18.00;70.10;;;;;;6198697;28;20319;-84
2023/08/24 01:00:05;;;;;;;4.37;4.27;;;18.00;70.00;;;;;;6205392;28;20323;-82
2023/08/24 01:03:08;;;;;;;5.00;4.80;;;18.00;70.10;;;;;;6207074;28;20232;-81
2023/08/24 01:06:12;;;;;;;5.63;5.33;;;18.00;70.20;;;;;;6213913;28;20242;-84
2023/08/24 01:09:16;;;;;;;5.40;5.07;;;17.90;70.30;;;;;;6189944;28;20589;-84
2023/08/24 01:12:29;;;;;;;5.20;5.00;;;17.90;70.30;;;;;;6210061;28;20275;-84
2023/08/24 01:15:38;;;;;;;6.40;5.97;;;17.90;70.40;;;;;;6206418;28;20243;-84
2023/08/24 01:18:44;;;;;;;7.03;6.53;;;18.00;70.50;;;;;;6211762;28;20243;-85
2023/08/24 01:21:47;;;;;;;8.90;8.20;;;18.00;70.50;;;;;;6206070;28;20240;-83
2023/08/24 01:24:58;;;;;;;9.73;8.93;;;18.00;70.60;;;;;;6210013;28;20255;-84
2023/08/24 01:28:05;;;;;;;10.60;9.60;;;18.00;70.70;;;;;;6197473;28;20347;-85
2023/08/24 01:31:08;;;;;;;11.73;10.73;;;18.00;70.70;;;;;;6207510;28;20374;-83
2023/08/24 01:34:11;;;;;;;12.53;11.33;;;18.00;70.80;;;;;;6213493;28;20318;-83
2023/08/24 01:37:15;;;;;;;14.47;13.17;;;18.00;70.80;;;;;;6201012;28;20866;-83
2023/08/24 01:40:24;;;;;;;13.30;12.20;;;18.00;70.90;;;;;;6197030;28;20319;-83
2023/08/24 01:43:33;;;;;;;13.83;12.57;;;18.00;70.90;;;;;;6210794;28;20722;-84
2023/08/24 01:46:48;;;;;;;20.03;17.93;;;18.10;70.90;;;;;;6209682;28;20467;-84
2023/08/24 01:49:52;;;;;;;21.60;19.40;;;18.10;70.90;;;;;;6190619;28;20243;-82
2023/08/24 01:52:55;;;;;;;21.83;19.63;;;18.10;70.80;;;;;;6204497;28;20242;-84
2023/08/24 01:55:58;;;;;;;22.23;19.57;;;18.10;70.80;;;;;;6203018;28;20283;-83
2023/08/24 01:59:03;;;;;;;19.27;17.00;;;18.20;70.70;;;;;;6197579;28;20344;-85
2023/08/24 02:02:06;;;;;;;16.47;14.87;;;18.20;70.60;;;;;;6207691;28;20275;-84
2023/08/24 02:05:09;;;;;;;14.33;12.83;;;18.30;70.40;;;;;;6192149;28;20235;-84
2023/08/24 02:08:12;;;;;;;8.50;7.87;;;18.30;70.20;;;;;;6210394;28;20313;-83
2023/08/24 02:11:16;;;;;;;6.37;5.97;;;18.30;70.00;;;;;;6201712;28;20250;-83
2023/08/24 02:14:20;;;;;;;6.27;5.73;;;18.40;69.50;;;;;;6201816;28;20235;-83
2023/08/24 02:17:23;;;;;;;6.00;5.67;;;18.50;69.50;;;;;;6213593;28;20259;-83
2023/08/24 02:20:26;;;;;;;8.50;5.27;;;18.50;69.40;;;;;;6199551;28;20235;-83
2023/08/24 02:23:29;;;;;;;5.60;5.27;;;18.50;69.30;;;;;;6207769;28;20289;-84
2023/08/24 02:26:32;;;;;;;5.13;4.93;;;18.50;69.30;;;;;;6211576;28;20228;-82
2023/08/24 02:29:38;;;;;;;5.63;5.17;;;18.60;69.30;;;;;;6212002;28;20255;-82
2023/08/24 02:32:41;;;;;;;6.23;5.73;;;18.70;69.20;;;;;;6212246;28;20243;-83
2023/08/24 02:35:44;;;;;;;5.53;5.13;;;18.70;69.20;;;;;;6195851;28;20249;-83
2023/08/24 02:38:48;;;;;;;5.47;5.17;;;18.70;69.20;;;;;;6205202;28;20250;-82
2023/08/24 02:41:51;;;;;;;5.00;4.80;;;18.80;69.20;;;;;;6207640;28;20727;-82
2023/08/24 02:44:55;;;;;;;5.20;4.90;;;18.80;69.10;;;;;;6211182;28;20232;-81
2023/08/24 02:47:58;;;;;;;4.90;4.70;;;18.90;69.20;;;;;;6207983;28;20235;-83
2023/08/24 02:51:03;;;;;;;4.67;4.47;;;18.90;69.20;;;;;;6203117;28;20231;-82
2023/08/24 02:54:06;;;;;;;5.67;5.23;;;18.90;69.20;;;;;;6206796;28;20236;-80
2023/08/24 02:57:09;;;;;;;5.87;5.40;;;18.90;69.10;;;;;;6199111;28;20359;-84
2023/08/24 03:00:14;;;;;;;5.90;5.50;;;19.00;69.00;;;;;;6205154;28;20250;-83
2023/08/24 03:03:18;;;;;;;6.60;6.20;;;18.90;68.90;;;;;;6212641;28;20736;-80
2023/08/24 03:06:23;;;;;;;6.47;6.10;;;19.00;68.90;;;;;;6198135;28;20231;-83
2023/08/24 03:09:26;;;;;;;6.90;6.40;;;19.00;69.10;;;;;;6204775;28;20251;-81
2023/08/24 03:12:30;;;;;;;6.07;5.70;;;18.90;69.20;;;;;;6212762;28;20320;-82
2023/08/24 03:15:36;;;;;;;7.27;6.33;;;18.90;69.20;;;;;;6200866;28;21098;-82
2023/08/24 03:18:41;;;;;;;6.20;5.70;;;18.90;69.40;;;;;;6204883;28;20244;-83
2023/08/24 03:21:44;;;;;;;6.93;6.13;;;18.90;69.30;;;;;;6212097;28;20235;-81
2023/08/24 03:24:47;;;;;;;6.33;5.97;;;19.00;69.00;;;;;;6208483;28;20285;-84
2023/08/24 03:27:51;;;;;;;6.30;5.90;;;19.00;68.90;;;;;;6205476;28;20816;-81
2023/08/24 03:30:56;;;;;;;5.60;5.40;;;18.90;68.70;;;;;;6203499;28;20799;-82
2023/08/24 03:33:59;;;;;;;5.60;5.20;;;18.90;68.70;;;;;;6196610;28;20239;-81
2023/08/24 03:37:02;;;;;;;5.77;5.17;;;18.90;68.50;;;;;;6207614;28;20239;-83
2023/08/24 03:40:07;;;;;;;5.57;5.27;;;18.80;68.50;;;;;;6201755;28;20379;-81
2023/08/24 03:43:10;;;;;;;5.07;4.97;;;18.80;68.30;;;;;;6195896;28;20243;-81
2023/08/24 03:46:14;;;;;;;5.47;5.03;;;18.80;68.20;;;;;;6208745;28;20239;-82
2023/08/24 03:49:18;;;;;;;4.70;4.50;;;18.80;68.00;;;;;;6202172;28;20235;-84
2023/08/24 03:52:21;;;;;;;5.53;4.87;;;18.80;67.80;;;;;;6206896;28;20759;-79
2023/08/24 03:55:24;;;;;;;4.03;3.67;;;18.80;67.50;;;;;;6210718;28;20235;-82
2023/08/24 03:58:27;;;;;;;5.90;4.57;;;18.80;67.30;;;;;;6210287;28;20936;-81
2023/08/24 04:01:32;;;;;;;4.80;4.60;;;18.80;67.50;;;;;;6205096;28;20314;-82
2023/08/24 04:04:35;;;;;;;4.50;4.27;;;18.80;67.50;;;;;;6212580;28;20742;-81
2023/08/24 04:07:39;;;;;;;4.27;4.10;;;18.90;67.40;;;;;;6207112;28;20254;-82
2023/08/24 04:10:42;;;;;;;4.10;3.97;;;18.90;67.30;;;;;;6204692;28;20728;-83
2023/08/24 04:13:46;;;;;;;4.20;3.97;;;18.90;67.30;;;;;;6204803;28;20744;-81
2023/08/24 04:16:50;;;;;;;4.93;4.53;;;18.90;67.20;;;;;;6209970;28;20255;-85
2023/08/24 04:19:53;;;;;;;4.90;4.60;;;18.90;67.20;;;;;;6204349;28;20822;-81
2023/08/24 04:22:57;;;;;;;4.47;4.27;;;18.90;67.20;;;;;;6202833;28;20763;-80
2023/08/24 04:26:00;;;;;;;4.33;4.13;;;18.90;67.10;;;;;;6207310;28;20258;-85
2023/08/24 04:29:03;;;;;;;4.43;4.27;;;18.90;66.80;;;;;;6197611;28;20381;-78
2023/08/24 04:32:08;;;;;;;4.07;3.97;;;18.90;66.80;;;;;;6206821;28;20235;-80
2023/08/24 04:35:11;;;;;;;4.20;4.00;;;19.00;66.80;;;;;;6206222;28;20307;-81
2023/08/24 04:38:14;;;;;;;4.07;3.97;;;19.00;66.70;;;;;;6204984;28;20243;-82
2023/08/24 04:41:17;;;;;;;4.77;4.47;;;19.00;66.70;;;;;;6209115;28;20318;-80
2023/08/24 04:44:20;;;;;;;3.57;3.43;;;19.00;66.70;;;;;;6204153;28;20311;-81
2023/08/24 04:47:24;;;;;;;4.80;4.60;;;19.00;66.80;;;;;;6208248;28;20238;-81
2023/08/24 04:50:27;;;;;;;5.93;5.47;;;19.00;66.60;;;;;;6202045;28;20247;-79
2023/08/24 04:53:31;;;;;;;4.10;3.80;;;19.00;66.30;;;;;;6210139;28;20251;-81
2023/08/24 04:56:34;;;;;;;4.50;4.30;;;19.00;66.40;;;;;;6209388;28;20293;-81
2023/08/24 04:59:37;;;;;;;4.80;4.60;;;19.00;66.50;;;;;;6211410;28;20236;-81
2023/08/24 05:02:42;;;;;;;5.23;4.93;;;19.00;66.40;;;;;;6201644;28;21029;-79
2023/08/24 05:05:46;;;;;;;4.63;4.37;;;19.00;66.60;;;;;;6215391;28;21378;-81
2023/08/24 05:08:49;;;;;;;4.17;4.07;;;19.00;66.60;;;;;;6222683;28;20388;-81
2023/08/24 05:11:52;;;;;;;4.33;4.23;;;19.00;66.50;;;;;;6214969;28;20286;-82
2023/08/24 05:14:55;;;;;;;4.67;4.47;;;19.10;66.60;;;;;;6208305;28;20238;-81
2023/08/24 05:17:59;;;;;;;5.30;4.73;;;19.10;66.90;;;;;;6217122;28;20262;-81
2023/08/24 05:21:03;;;;;;;5.20;4.70;;;19.20;66.90;;;;;;6218206;28;20326;-80
2023/08/24 05:24:06;;;;;;;5.13;4.83;;;19.20;66.50;;;;;;6210684;28;20363;-80
2023/08/24 05:27:09;;;;;;;5.17;4.77;;;19.20;66.40;;;;;;6213994;28;20239;-80
2023/08/24 05:30:13;;;;;;;7.37;4.67;;;19.30;66.60;;;;;;6213266;28;20837;-79
2023/08/24 05:33:17;;;;;;;4.47;4.27;;;19.30;66.40;;;;;;6204158;28;20235;-82
2023/08/24 05:36:20;;;;;;;5.53;5.00;;;19.40;66.40;;;;;;6203447;28;20239;-80
2023/08/24 05:39:23;;;;;;;4.50;4.30;;;19.50;66.20;;;;;;6215091;28;20283;-79
2023/08/24 05:42:27;;;;;;;5.17;4.87;;;19.60;66.40;;;;;;6202788;28;20782;-82
2023/08/24 05:45:30;;;;;;;6.97;5.37;;;19.70;66.20;;;;;;6209934;28;20326;-78
2023/08/24 05:48:34;;;;;;;5.13;4.63;;;19.70;65.60;;;;;;6214619;28;20274;-79
2023/08/24 05:51:37;;;;;;;5.20;4.73;;;19.70;65.50;;;;;;6208109;28;20645;-79
2023/08/24 05:54:40;;;;;;;5.87;5.37;;;19.70;65.60;;;;;;6209001;28;20232;-76
2023/08/24 05:57:43;;;;;;;4.27;4.13;;;19.90;65.60;;;;;;6198795;28;20243;-78
2023/08/24 06:00:46;;;;;;;4.53;4.20;;;20.00;65.40;;;;;;6203231;28;20243;-79
2023/08/24 06:03:51;;;;;;;4.43;4.23;;;20.00;65.50;;;;;;6214372;28;20322;-77
2023/08/24 06:06:58;;;;;;;4.67;4.47;;;20.30;65.40;;;;;;6203643;28;20229;-79
2023/08/24 06:10:01;;;;;;;4.40;4.10;;;20.50;64.70;;;;;;6203087;28;20744;-75
2023/08/24 06:13:04;;;;;;;4.50;4.10;;;20.70;64.50;;;;;;6201520;28;20231;-77
2023/08/24 06:16:07;;;;;;;10.23;5.60;;;20.90;63.60;;;;;;6201034;28;20905;-76
2023/08/24 06:19:12;;;;;;;5.07;4.57;;;21.10;63.30;;;;;;6202119;28;20234;-80
2023/08/24 06:22:15;;;;;;;3.90;3.70;;;21.30;63.00;;;;;;6204704;28;20235;-79
2023/08/24 06:25:19;;;;;;;4.30;4.10;;;21.40;62.10;;;;;;6208492;28;20231;-78
2023/08/24 06:28:22;;;;;;;4.70;4.40;;;21.50;61.60;;;;;;6195567;28;20248;-78
2023/08/24 06:31:25;;;;;;;4.90;4.60;;;21.50;62.00;;;;;;6198890;28;20792;-76
2023/08/24 06:34:29;;;;;;;3.97;3.87;;;22.10;60.50;;;;;;6211996;28;20259;-78
2023/08/24 06:37:32;;;;;;;8.37;7.60;;;22.30;59.90;;;;;;6212721;28;21165;-80
2023/08/24 06:40:36;;;;;;;7.07;6.47;;;22.10;60.20;;;;;;6196860;28;20243;-79
2023/08/24 06:43:39;;;;;;;4.40;4.00;;;22.30;60.00;;;;;;6209271;28;20880;-77
2023/08/24 06:46:42;;;;;;;4.33;3.90;;;22.20;60.30;;;;;;6209741;28;20250;-79
2023/08/24 06:49:47;;;;;;;4.47;4.23;;;22.20;60.20;;;;;;6209829;28;20940;-78
2023/08/24 06:52:50;;;;;;;4.97;4.67;;;22.20;60.20;;;;;;6206731;28;20754;-76
2023/08/24 06:55:56;;;;;;;4.33;4.03;;;22.20;60.30;;;;;;6211986;28;20394;-79
2023/08/24 06:58:59;;;;;;;5.67;4.37;;;22.10;60.10;;;;;;6181460;28;20263;-77
2023/08/24 07:02:04;;;;;;;6.93;4.37;;;22.20;59.90;;;;;;6188714;28;20235;-78
2023/08/24 07:05:09;;;;;;;5.63;4.50;;;22.10;59.70;;;;;;6180931;28;20326;-77
2023/08/24 07:08:12;;;;;;;4.50;4.20;;;22.10;60.00;;;;;;6176954;28;20243;-77
2023/08/24 07:11:15;;;;;;;4.80;4.37;;;22.20;60.00;;;;;;6175417;28;20829;-80
2023/08/24 07:14:18;;;;;;;7.80;4.40;;;22.20;59.80;;;;;;6181760;28;20251;-78
2023/08/24 07:17:21;;;;;;;5.43;5.13;;;22.20;60.00;;;;;;6181146;28;20289;-78
2023/08/24 07:20:26;;;;;;;5.90;5.30;;;22.30;59.70;;;;;;6179220;28;20290;-78
2023/08/24 07:23:29;;;;;;;4.10;3.80;;;22.50;59.90;;;;;;6200140;28;20318;-80
2023/08/24 07:26:32;;;;;;;4.37;4.17;;;22.60;59.90;;;;;;6210269;28;20246;-78
2023/08/24 07:29:36;;;;;;;5.77;3.93;;;22.80;59.30;;;;;;6206962;28;20318;-77
2023/08/24 07:32:39;;;;;;;6.80;4.33;;;22.90;58.60;;;;;;6207231;28;20274;-79
2023/08/24 07:35:43;;;;;;;4.77;4.37;;;23.00;58.10;;;;;;6200737;28;20247;-75
2023/08/24 07:38:47;;;;;;;4.90;4.40;;;23.00;58.00;;;;;;6197640;28;20240;-80
2023/08/24 07:41:50;;;;;;;4.77;4.20;;;23.00;57.80;;;;;;6205862;28;20247;-77
2023/08/24 07:44:53;;;;;;;4.93;4.37;;;23.00;58.10;;;;;;6199919;28;20228;-78
2023/08/24 07:47:57;;;;;;;4.13;3.93;;;22.80;57.40;;;;;;6200950;28;20842;-76
2023/08/24 07:51:02;;;;;;;4.37;4.00;;;23.00;58.20;;;;;;6204890;28;20246;-76
2023/08/24 07:54:06;;;;;;;3.87;3.60;;;23.00;57.50;;;;;;6199166;28;20313;-78
2023/08/24 07:57:10;;;;;;;4.17;3.87;;;23.00;57.80;;;;;;6199550;28;20228;-78
2023/08/24 08:00:15;;;;;;;4.53;3.43;;;23.20;58.20;;;;;;6207592;28;20232;-76
2023/08/24 08:03:18;;;;;;;3.70;3.60;;;23.40;57.30;;;;;;6206565;28;20271;-78
2023/08/24 08:06:24;;;;;;;3.87;3.57;;;23.50;57.00;;;;;;6206155;28;20234;-77
2023/08/24 08:09:27;;;;;;;3.80;3.53;;;23.60;57.60;;;;;;6203916;28;20240;-79
2023/08/24 08:12:32;;;;;;;4.53;4.20;;;23.90;56.20;;;;;;6206517;28;20235;-76
2023/08/24 08:15:35;;;;;;;3.50;3.20;;;23.90;56.30;;;;;;6207330;28;20335;-76
2023/08/24 08:18:39;;;;;;;4.23;3.93;;;24.00;55.60;;;;;;6207909;28;20247;-78
2023/08/24 08:21:44;;;;;;;4.87;4.33;;;24.00;55.20;;;;;;6194383;28;20235;-78
2023/08/24 08:24:47;;;;;;;4.20;3.97;;;24.00;55.20;;;;;;6197824;28;20239;-76
2023/08/24 08:27:50;;;;;;;4.80;3.80;;;24.00;55.20;;;;;;6214465;28;20243;-78
2023/08/24 08:30:54;;;;;;;7.77;4.03;;;24.20;55.10;;;;;;6213233;28;20239;-79
2023/08/24 08:33:58;;;;;;;4.67;4.37;;;24.40;54.50;;;;;;6210891;28;20235;-78
2023/08/24 08:37:02;;;;;;;4.40;3.47;;;24.50;55.40;;;;;;6213887;28;20777;-80
2023/08/24 08:40:06;;;;;;;5.37;4.83;;;24.60;55.70;;;;;;6208656;28;20880;-80
2023/08/24 08:43:10;;;;;;;4.20;3.80;;;24.40;54.00;;;;;;6211237;28;20278;-78
2023/08/24 08:46:15;;;;;;;4.20;3.50;;;24.20;55.20;;;;;;6215626;28;20790;-78
2023/08/24 08:49:20;;;;;;;6.77;4.43;;;24.00;54.50;;;;;;6214196;28;20235;-77
2023/08/24 08:52:25;;;;;;;5.00;3.60;;;23.90;54.60;;;;;;6213960;28;20470;-79
2023/08/24 08:55:31;;;;;;;3.87;3.57;;;23.90;55.10;;;;;;6201419;28;20726;-77
2023/08/24 08:58:36;;;;;;;4.80;3.90;;;23.90;55.30;;;;;;6214214;28;20325;-76
2023/08/24 09:01:39;;;;;;;4.63;4.27;;;24.00;55.60;;;;;;6211599;28;20296;-76
2023/08/24 09:04:45;;;;;;;3.60;3.40;;;24.00;55.40;;;;;;6208096;28;20251;-77
2023/08/24 09:07:50;;;;;;;4.43;4.00;;;24.10;56.10;;;;;;6206634;28;20338;-80
2023/08/24 09:10:55;;;;;;;3.80;3.60;;;24.00;55.10;;;;;;6207464;28;20247;-79
2023/08/24 09:13:58;;;;;;;4.10;3.80;;;24.00;55.30;;;;;;6215760;28;20393;-79
2023/08/24 09:17:02;;;;;;;4.80;4.33;;;24.00;55.50;;;;;;6210129;28;20266;-78
2023/08/24 09:20:09;;;;;;;3.93;3.73;;;24.10;55.30;;;;;;6174109;28;20822;-78
2023/08/24 09:23:20;;;;;;;4.80;4.33;;;24.20;56.00;;;;;;6197352;28;20761;-79
2023/08/24 09:26:29;;;;;;;4.10;3.80;;;24.20;54.60;;;;;;6191957;28;20778;-82
2023/08/24 09:29:37;;;;;;;4.27;4.07;;;24.10;54.80;;;;;;6190184;28;20255;-79
2023/08/24 09:32:41;;;;;;;3.87;3.67;;;24.20;55.00;;;;;;6201973;28;20366;-80
2023/08/24 09:35:45;;;;;;;3.90;3.47;;;24.20;55.20;;;;;;6209118;28;20246;-80
2023/08/24 09:38:50;;;;;;;3.43;3.33;;;24.40;55.80;;;;;;6213186;28;20864;-80
2023/08/24 09:41:54;;;;;;;7.50;4.40;;;24.60;55.80;;;;;;6208268;28;20742;-80
2023/08/24 09:45:04;;;;;;;4.23;3.83;;;24.60;55.40;;;;;;6218146;28;20247;-79
2023/08/24 09:48:09;;;;;;;6.23;3.90;;;24.70;54.50;;;;;;6213469;28;20265;-80
2023/08/24 09:51:14;;;;;;;3.87;3.67;;;24.70;53.40;;;;;;6210917;28;20646;-77
2023/08/24 09:54:22;;;;;;;4.07;3.80;;;24.80;54.00;;;;;;6206012;28;20734;-78
2023/08/24 09:57:27;;;;;;;3.40;3.30;;;24.90;53.30;;;;;;6208963;28;20390;-79
2023/08/24 10:00:30;;;;;;;4.10;3.63;;;24.70;53.60;;;;;;6214227;28;20240;-79
2023/08/24 10:03:40;;;;;;;3.20;2.93;;;25.00;54.40;;;;;;6207779;28;20246;-77
2023/08/24 10:06:45;;;;;;;4.53;3.17;;;25.20;51.60;;;;;;6209505;28;20248;-80
2023/08/24 10:10:02;;;;;;;3.23;3.03;;;25.30;52.10;;;;;;6204601;28;20766;-80
2023/08/24 10:13:14;;;;;;;3.30;3.20;;;25.50;52.60;;;;;;6202220;28;20374;-81
2023/08/24 10:16:18;;;;;;;3.47;3.30;;;25.60;52.10;;;;;;6213013;28;20273;-79
2023/08/24 10:19:23;;;;;;;4.37;3.40;;;25.30;51.40;;;;;;6205987;28;20270;-80
2023/08/24 10:22:26;;;;;;;5.47;3.90;;;25.50;51.00;;;;;;6199598;28;20244;-82
2023/08/24 10:25:31;;;;;;;3.53;3.17;;;25.70;51.50;;;;;;6216354;28;20893;-80
2023/08/24 10:28:35;;;;;;;5.73;3.30;;;25.60;51.80;;;;;;6213489;28;20274;-83
2023/08/24 10:31:38;;;;;;;3.37;3.27;;;25.50;51.90;;;;;;6217710;28;20313;-79
2023/08/24 10:34:42;;;;;;;3.70;3.30;;;25.40;51.90;;;;;;6214594;28;20239;-80
2023/08/24 10:37:47;;;;;;;6.00;3.63;;;25.60;52.40;;;;;;6211488;28;20240;-80
2023/08/24 10:40:52;;;;;;;3.70;3.30;;;25.80;52.40;;;;;;6210528;28;20720;-79
2023/08/24 10:44:08;;;;;;;3.07;3.03;;;25.80;51.60;;;;;;6196430;28;20369;-78
2023/08/24 10:47:16;;;;;;;2.93;2.83;;;26.00;52.00;;;;;;6203812;28;20243;-79
2023/08/24 10:50:20;;;;;;;4.00;3.60;;;25.80;51.50;;;;;;6197869;28;20238;-79
2023/08/24 10:53:41;;;;;;;5.43;3.83;;;26.00;51.00;;;;;;6209107;28;20310;-79
2023/08/24 10:56:56;;;;;;;4.03;3.73;;;25.90;51.50;;;;;;6202147;28;20242;-77
2023/08/24 11:00:01;;;;;;;3.90;3.60;;;26.00;51.80;;;;;;6209062;28;20258;-78
2023/08/24 11:03:04;;;;;;;3.60;3.40;;;26.10;52.00;;;;;;6186226;28;20247;-77
2023/08/24 11:06:19;;;;;;;3.07;3.03;;;26.20;51.90;;;;;;6184342;28;21394;-79
2023/08/24 11:09:24;;;;;;;4.37;3.97;;;26.40;51.10;;;;;;6197044;28;20869;-79
2023/08/24 11:12:29;;;;;;;3.57;3.37;;;26.40;50.90;;;;;;6203128;28;20739;-79
2023/08/24 11:15:33;;;;;;;3.90;3.70;;;26.60;51.20;;;;;;6201202;28;20240;-79
2023/08/24 11:18:41;;;;;;;4.73;4.57;;;26.90;50.80;;;;;;6206165;28;20425;-77
2023/08/24 11:21:45;;;;;;;4.53;3.73;;;27.00;50.50;;;;;;6204398;28;20323;-80
2023/08/24 11:24:48;;;;;;;4.70;4.10;;;27.00;50.90;;;;;;6212175;28;20735;-81
2023/08/24 11:27:53;;;;;;;7.93;4.50;;;27.10;50.40;;;;;;6206258;28;20741;-80
2023/08/24 11:30:57;;;;;;;4.57;4.27;;;27.10;51.40;;;;;;6194771;28;20239;-80
2023/08/24 11:34:01;;;;;;;3.80;3.70;;;27.00;51.00;;;;;;6206894;28;20235;-77
2023/08/24 11:37:04;;;;;;;3.87;3.63;;;27.00;51.40;;;;;;6205433;28;20330;-79
2023/08/24 11:40:18;;;;;;;3.80;3.60;;;27.10;50.70;;;;;;6208382;28;20267;-80
2023/08/24 11:43:29;;;;;;;4.03;3.60;;;27.20;50.00;;;;;;6201100;28;20228;-80
2023/08/24 11:46:32;;;;;;;5.33;3.43;;;27.20;50.70;;;;;;6210329;28;20243;-78
2023/08/24 11:49:35;;;;;;;5.60;4.20;;;27.20;50.20;;;;;;6210389;28;20235;-80
2023/08/24 11:52:40;;;;;;;4.30;3.97;;;27.20;50.70;;;;;;6203730;28;20370;-78
2023/08/24 11:55:43;;;;;;;4.10;3.80;;;27.50;50.20;;;;;;6209207;28;20239;-77
2023/08/24 11:59:12;;;;;;;4.33;4.00;;;27.40;49.70;;;;;;6206221;28;20239;-78
2023/08/24 12:02:17;;;;;;;5.33;5.10;;;27.30;49.60;;;;;;6208326;28;20326;-78
2023/08/24 12:05:24;;;;;;;4.67;4.27;;;27.50;49.60;;;;;;6204848;28;20231;-79
2023/08/24 12:08:27;;;;;;;3.63;3.50;;;27.40;49.10;;;;;;6201470;28;20298;-77
2023/08/24 12:11:36;;;;;;;4.67;4.43;;;27.40;49.40;;;;;;6196077;28;20239;-77
2023/08/24 12:14:44;;;;;;;3.83;3.60;;;27.30;49.70;;;;;;6203162;28;20255;-79
2023/08/24 12:17:48;;;;;;;4.27;3.97;;;27.20;49.90;;;;;;6180205;28;20249;-78
2023/08/24 12:20:52;;;;;;;3.60;3.50;;;27.30;50.00;;;;;;6200728;28;20239;-77
2023/08/24 12:23:59;;;;;;;3.37;3.23;;;27.30;50.30;;;;;;6212965;28;20259;-78
2023/08/24 12:27:03;;;;;;;3.70;3.60;;;27.50;50.70;;;;;;6184441;28;20793;-78
2023/08/24 12:30:11;;;;;;;3.50;3.40;;;27.70;49.80;;;;;;6201260;28;20253;-78
2023/08/24 12:33:24;;;;;;;4.07;3.90;;;27.90;49.90;;;;;;6205117;28;20326;-79
2023/08/24 12:36:27;;;;;;;4.27;4.03;;;27.70;49.60;;;;;;6205761;28;20242;-78
2023/08/24 12:39:36;;;;;;;5.13;4.63;;;27.50;49.80;;;;;;6208899;28;20246;-80
2023/08/24 12:42:39;;;;;;;4.30;3.90;;;27.40;50.10;;;;;;6201660;28;20235;-80
2023/08/24 12:45:45;;;;;;;4.47;4.20;;;27.50;50.30;;;;;;6210028;28;20905;-78
2023/08/24 12:48:48;;;;;;;4.30;3.97;;;27.70;49.90;;;;;;6211149;28;20231;-80
2023/08/24 12:51:51;;;;;;;4.83;4.40;;;27.50;49.40;;;;;;6207145;28;20243;-80
2023/08/24 12:54:55;;;;;;;4.00;3.90;;;27.70;50.50;;;;;;6205625;28;20755;-78
2023/08/24 12:57:58;;;;;;;4.00;3.40;;;27.70;49.30;;;;;;6208373;28;20784;-79
2023/08/24 13:01:02;;;;;;;3.87;3.57;;;27.80;49.60;;;;;;6208274;28;20381;-79
2023/08/24 13:04:06;;;;;;;4.17;3.63;;;27.80;50.20;;;;;;6212008;28;20810;-78
2023/08/24 13:07:09;;;;;;;3.67;3.57;;;27.80;50.60;;;;;;6202253;28;20242;-81
2023/08/24 13:10:14;;;;;;;3.97;3.50;;;28.00;50.20;;;;;;6207350;28;20258;-83
2023/08/24 13:13:17;;;;;;;3.30;3.20;;;28.10;49.70;;;;;;6207997;28;20239;-79
2023/08/24 13:16:21;;;;;;;5.03;4.73;;;28.30;49.50;;;;;;6212625;28;20354;-83
2023/08/24 13:19:24;;;;;;;4.17;3.97;;;28.10;49.50;;;;;;6214546;28;20258;-82
2023/08/24 13:22:28;;;;;;;3.97;3.72;;;28.10;49.30;;;;;;6215354;28;20890;-81
2023/08/24 13:25:32;;;;;;;4.50;4.17;;;28.10;48.90;;;;;;6214493;28;20732;-82
2023/08/24 13:28:35;;;;;;;3.57;3.30;;;28.10;49.50;;;;;;6216027;28;20244;-80
2023/08/24 13:31:39;;;;;;;3.70;3.50;;;27.80;50.00;;;;;;6204860;28;20313;-83
2023/08/24 13:34:42;;;;;;;4.23;3.87;;;27.90;49.40;;;;;;6213184;28;20235;-78
2023/08/24 13:37:45;;;;;;;4.13;3.93;;;28.00;48.90;;;;;;6200139;28;20263;-85
2023/08/24 13:40:49;;;;;;;3.87;3.77;;;27.80;49.50;;;;;;6207843;28;20246;-83
2023/08/24 13:43:53;;;;;;;3.33;3.23;;;27.90;49.70;;;;;;6212389;28;20998;-83
2023/08/24 13:46:57;;;;;;;3.50;3.40;;;28.10;49.40;;;;;;6218611;28;20255;-78
2023/08/24 13:50:00;;;;;;;3.83;3.53;;;28.30;49.40;;;;;;6215863;28;20240;-80
2023/08/24 13:53:04;;;;;;;4.38;4.05;;;28.50;48.40;;;;;;6209443;28;20236;-77
2023/08/24 13:56:07;;;;;;;3.78;3.33;;;28.60;48.80;;;;;;6214190;28;20231;-79
2023/08/24 13:59:10;;;;;;;3.90;3.75;;;28.50;49.30;;;;;;6213310;28;20758;-79
2023/08/24 14:02:14;;;;;;;4.57;4.18;;;28.50;49.20;;;;;;6218881;28;20239;-77
2023/08/24 14:05:17;;;;;;;4.10;3.83;;;28.50;48.80;;;;;;6201205;28;20850;-79
2023/08/24 14:08:22;;;;;;;4.25;3.60;;;28.50;49.40;;;;;;6213385;28;20734;-76
2023/08/24 14:11:25;;;;;;;2.83;2.63;;;28.60;49.40;;;;;;6206543;28;20280;-79
2023/08/24 14:14:28;;;;;;;4.53;4.07;;;28.30;48.80;;;;;;6211346;28;20688;-81
2023/08/24 14:17:32;;;;;;;8.20;3.27;;;28.40;49.40;;;;;;6220062;28;20239;-80
2023/08/24 14:20:36;;;;;;;3.60;3.50;;;28.30;48.70;;;;;;6203788;28;20323;-80
2023/08/24 14:23:39;;;;;;;3.58;3.38;;;28.30;48.90;;;;;;6203130;28;20317;-83
2023/08/24 14:26:45;;;;;;;4.45;4.15;;;28.50;49.50;;;;;;6212063;28;20238;-80
2023/08/24 14:29:48;;;;;;;3.53;3.28;;;28.50;49.50;;;;;;6213279;28;20243;-81
2023/08/24 14:32:53;;;;;;;3.88;3.38;;;28.70;49.60;;;;;;6211242;28;20317;-81
2023/08/24 14:35:56;;;;;;;4.53;3.28;;;29.00;48.60;;;;;;6208398;28;20331;-83
2023/08/24 14:38:59;;;;;;;3.42;3.20;;;29.00;48.30;;;;;;6204519;28;20232;-82
2023/08/24 14:42:04;;;;;;;3.97;3.78;;;29.00;48.90;;;;;;6203068;28;20227;-83
2023/08/24 14:45:08;;;;;;;3.45;3.22;;;28.70;49.00;;;;;;6199259;28;20231;-81
2023/08/24 14:48:12;;;;;;;3.22;3.03;;;28.70;48.20;;;;;;6204314;28;20271;-82
2023/08/24 14:51:16;;;;;;;3.58;3.35;;;28.50;48.30;;;;;;6206611;28;20247;-83
2023/08/24 14:54:19;;;;;;;4.90;3.50;;;28.80;48.60;;;;;;6205364;28;20236;-81
2023/08/24 14:57:22;;;;;;;3.40;3.10;;;28.70;47.90;;;;;;6203416;28;20310;-78
2023/08/24 15:00:26;;;;;;;3.30;3.10;;;28.30;48.30;;;;;;6212402;28;20385;-81
2023/08/24 15:03:30;;;;;;;3.70;3.33;;;28.50;48.70;;;;;;6206316;28;20375;-80
2023/08/24 15:06:33;;;;;;;3.60;3.40;;;28.60;48.50;;;;;;6216644;28;20239;-80
2023/08/24 15:09:37;;;;;;;4.20;3.95;;;28.90;48.90;;;;;;6207140;28;20250;-80
2023/08/24 15:12:40;;;;;;;3.88;3.72;;;28.60;49.00;;;;;;6197780;28;20732;-80
2023/08/24 15:15:43;;;;;;;3.30;3.05;;;28.70;48.70;;;;;;6214668;28;20722;-80
2023/08/24 15:18:47;;;;;;;4.45;3.45;;;28.70;49.10;;;;;;6205860;28;20243;-78
2023/08/24 15:21:50;;;;;;;4.28;3.63;;;28.50;48.20;;;;;;6195083;28;20228;-82
2023/08/24 15:24:53;;;;;;;3.67;3.47;;;28.30;49.70;;;;;;6203940;28;20583;-81
2023/08/24 15:27:58;;;;;;;3.85;3.75;;;28.30;49.50;;;;;;6204354;28;20315;-80
2023/08/24 15:31:02;;;;;;;3.80;3.47;;;28.40;49.00;;;;;;6206256;28;20495;-82
2023/08/24 15:34:06;;;;;;;5.53;3.85;;;28.50;49.50;;;;;;6202044;28;20228;-83
2023/08/24 15:37:09;;;;;;;5.30;4.60;;;28.40;49.10;;;;;;6202110;28;20227;-81
2023/08/24 15:40:15;;;;;;;3.90;3.75;;;28.30;48.50;;;;;;6212714;28;20238;-80
2023/08/24 15:43:18;;;;;;;3.70;3.42;;;28.30;48.80;;;;;;6211202;28;20239;-79
2023/08/24 15:46:22;;;;;;;3.77;3.50;;;28.00;49.10;;;;;;6205421;28;20316;-79
2023/08/24 15:49:27;;;;;;;3.87;3.57;;;27.90;49.20;;;;;;6204138;28;20321;-82
2023/08/24 15:52:31;;;;;;;5.50;3.87;;;28.00;49.30;;;;;;6211270;28;20244;-80
2023/08/24 15:55:35;;;;;;;4.43;4.23;;;28.00;49.60;;;;;;6214587;28;20238;-81
2023/08/24 15:58:38;;;;;;;7.37;4.60;;;27.60;49.80;;;;;;6202542;28;20867;-80